Time;durP1;ratioP1;P1;durP2;ratioP2;P2;SDS_P1;SDS_P2;PMS_P1;PMS_P2;Temp;Humidity;BMP_temperature;BMP_pressure;BME280_temperature;BME280_humidity;BME280_pressure;Samples;Min_cycle;Max_cycle;Signal;HPM_P1;HPM_P2
2022/04/10 00:02:06;;;;;;;2.90;2.60;;;6.60;99.90;;;;;;5098169;28;20398;-88
2022/04/10 00:04:32;;;;;;;3.40;2.72;;;6.70;99.90;;;;;;5101407;28;20378;-88
2022/04/10 00:07:01;;;;;;;3.00;2.70;;;6.30;99.90;;;;;;5083514;28;20386;-88
2022/04/10 00:09:26;;;;;;;3.50;3.08;;;5.10;99.90;;;;;;5081475;28;20444;-87
2022/04/10 00:11:52;;;;;;;3.90;2.90;;;5.80;99.90;;;;;;5080121;28;20394;-88
2022/04/10 00:14:18;;;;;;;2.90;2.60;;;5.60;99.90;;;;;;5081336;28;20424;-88
2022/04/10 00:16:43;;;;;;;2.87;2.67;;;5.80;99.90;;;;;;5096974;28;20465;-88
2022/04/10 00:19:09;;;;;;;3.33;3.03;;;6.00;99.90;;;;;;5098520;28;20378;-88
2022/04/10 00:21:34;;;;;;;3.30;3.00;;;5.70;99.90;;;;;;5098628;28;20417;-88
2022/04/10 00:24:00;;;;;;;3.17;2.97;;;6.40;99.90;;;;;;5097586;28;20378;-87
2022/04/10 00:26:26;;;;;;;3.73;3.10;;;6.20;99.90;;;;;;5099306;28;20386;-88
2022/04/10 00:28:53;;;;;;;3.35;2.97;;;5.80;99.90;;;;;;5097983;28;20402;-88
2022/04/10 00:31:19;;;;;;;4.00;3.60;;;5.40;99.90;;;;;;5099866;28;20378;-88
2022/04/10 00:33:44;;;;;;;4.93;4.05;;;5.20;99.90;;;;;;5099497;28;20384;-88
2022/04/10 00:36:10;;;;;;;4.70;3.30;;;5.60;99.90;;;;;;5099389;28;20412;-88
2022/04/10 00:38:36;;;;;;;3.80;3.40;;;7.00;99.90;;;;;;5093955;28;20382;-88
2022/04/10 00:41:02;;;;;;;2.97;2.67;;;6.30;99.90;;;;;;5108729;28;20378;-88
2022/04/10 00:43:53;;;;;;;3.30;2.70;;;6.20;99.90;;;;;;5099841;28;20375;-88
2022/04/10 00:46:57;;;;;;;3.03;2.73;;;6.30;99.90;;;;;;5083075;28;20382;-88
2022/04/10 00:49:25;;;;;;;3.05;2.60;;;7.10;99.90;;;;;;5069920;28;20489;-88
2022/04/10 00:51:53;;;;;;;2.85;2.65;;;6.20;99.90;;;;;;5097490;28;20381;-88
2022/04/10 00:54:26;;;;;;;2.70;2.50;;;6.40;99.90;;;;;;5099874;28;20404;-88
2022/04/10 00:56:55;;;;;;;3.25;2.88;;;6.50;99.90;;;;;;5099104;28;20760;-88
2022/04/10 00:59:21;;;;;;;3.03;2.83;;;6.40;99.90;;;;;;5099103;28;20446;-88
2022/04/10 01:01:48;;;;;;;3.20;2.78;;;6.30;99.90;;;;;;5099241;28;20413;-88
2022/04/10 01:04:14;;;;;;;3.67;2.92;;;6.70;99.90;;;;;;5098148;28;20404;-88
2022/04/10 01:06:41;;;;;;;3.33;2.80;;;6.30;99.90;;;;;;5097798;28;20378;-88
2022/04/10 01:09:07;;;;;;;3.05;2.78;;;6.00;99.90;;;;;;5079323;28;20398;-88
2022/04/10 01:11:34;;;;;;;3.42;3.13;;;6.00;99.90;;;;;;5098049;28;20450;-88
2022/04/10 01:14:00;;;;;;;3.28;3.05;;;6.70;99.90;;;;;;5098454;28;20405;-88
2022/04/10 01:16:27;;;;;;;2.70;2.50;;;6.00;99.90;;;;;;5098253;28;20382;-88
2022/04/10 01:18:54;;;;;;;2.88;2.67;;;6.80;99.90;;;;;;5064075;28;20401;-88
2022/04/10 01:21:48;;;;;;;4.50;2.70;;;6.30;99.90;;;;;;5099315;28;20876;-88
2022/04/10 01:24:14;;;;;;;2.92;2.65;;;6.30;99.90;;;;;;5081086;28;20477;-88
2022/04/10 01:26:41;;;;;;;3.10;2.80;;;6.50;99.90;;;;;;5080149;28;20381;-88
2022/04/10 01:29:14;;;;;;;2.65;2.45;;;7.60;99.90;;;;;;5098694;28;20398;-88
2022/04/10 01:31:42;;;;;;;2.50;2.30;;;6.40;99.90;;;;;;5098426;28;20370;-88
2022/04/10 01:34:10;;;;;;;2.67;2.47;;;6.40;99.90;;;;;;5100273;28;20394;-88
2022/04/10 01:36:37;;;;;;;2.95;2.75;;;6.30;99.90;;;;;;5080280;28;20420;-88
2022/04/10 01:39:06;;;;;;;2.75;2.55;;;7.00;99.90;;;;;;5097403;28;20443;-88
2022/04/10 01:41:34;;;;;;;2.72;2.53;;;6.20;99.90;;;;;;5098390;28;20861;-88
2022/04/10 01:44:00;;;;;;;2.88;2.67;;;6.30;99.90;;;;;;5094664;28;20414;-88
2022/04/10 01:46:30;;;;;;;3.35;3.10;;;6.20;99.90;;;;;;5091967;28;20406;-88
2022/04/10 01:48:56;;;;;;;3.47;2.85;;;5.90;99.90;;;;;;5096269;28;20404;-88
2022/04/10 01:51:23;;;;;;;3.05;2.72;;;5.90;99.90;;;;;;5095639;28;20377;-89
2022/04/10 01:53:53;;;;;;;3.53;3.20;;;6.20;99.90;;;;;;5098248;28;20381;-89
2022/04/10 01:56:28;;;;;;;3.65;3.35;;;5.60;99.90;;;;;;5101326;28;20872;-89
2022/04/10 01:58:53;;;;;;;3.40;3.10;;;5.90;99.90;;;;;;5098653;28;20424;-88
2022/04/10 02:01:28;;;;;;;3.28;3.00;;;6.90;99.90;;;;;;5100683;28;20385;-88
2022/04/10 02:04:03;;;;;;;3.40;3.10;;;6.60;99.90;;;;;;5083345;28;20472;-88
2022/04/10 02:07:20;;;;;;;3.33;3.03;;;5.80;99.90;;;;;;5103123;28;20749;-88
2022/04/10 02:09:50;;;;;;;4.18;3.10;;;5.80;99.90;;;;;;5096267;28;20437;-88
2022/04/10 02:12:43;;;;;;;3.40;3.00;;;5.20;99.90;;;;;;5104471;28;20378;-88
2022/04/10 02:15:15;;;;;;;3.40;3.10;;;6.10;99.90;;;;;;5099617;28;20504;-88
2022/04/10 02:17:44;;;;;;;3.15;2.78;;;5.90;99.90;;;;;;5102250;28;20401;-88
2022/04/10 02:20:18;;;;;;;3.20;2.90;;;6.70;99.90;;;;;;5103556;28;20386;-88
2022/04/10 02:23:20;;;;;;;3.03;2.83;;;6.50;99.90;;;;;;5105864;28;20382;-88
2022/04/10 02:25:39;;;;;;;3.13;2.93;;;5.70;99.90;;;;;;5100676;28;20367;-88
2022/04/10 02:28:05;;;;;;;2.70;2.50;;;7.00;99.90;;;;;;5069168;28;20855;-88
2022/04/10 02:30:30;;;;;;;3.10;2.83;;;5.80;99.90;;;;;;5102384;28;20737;-88
2022/04/10 02:33:01;;;;;;;3.20;2.90;;;5.40;99.90;;;;;;5091657;28;20754;-88
2022/04/10 02:35:27;;;;;;;3.03;2.83;;;5.80;99.90;;;;;;5102934;28;20811;-87
2022/04/10 02:37:52;;;;;;;3.10;2.80;;;5.30;99.90;;;;;;5078113;28;20429;-88
2022/04/10 02:40:18;;;;;;;3.08;2.83;;;5.30;99.90;;;;;;5084964;28;20390;-88
2022/04/10 02:43:10;;;;;;;3.13;2.88;;;5.40;99.90;;;;;;5104250;28;20378;-88
2022/04/10 02:45:38;;;;;;;3.75;3.08;;;6.10;99.90;;;;;;5078184;28;20394;-88
2022/04/10 02:48:04;;;;;;;3.50;3.20;;;4.80;99.90;;;;;;5085312;28;20880;-88
2022/04/10 02:50:30;;;;;;;3.63;3.00;;;5.10;99.90;;;;;;5102940;28;20492;-88
2022/04/10 02:52:55;;;;;;;3.03;2.70;;;5.20;99.90;;;;;;5102359;28;21093;-88
2022/04/10 02:55:21;;;;;;;3.50;3.20;;;4.60;99.90;;;;;;5102916;28;20374;-88
2022/04/10 02:57:47;;;;;;;3.17;2.88;;;4.70;99.90;;;;;;5084650;28;20378;-88
2022/04/10 03:00:13;;;;;;;3.20;2.88;;;4.80;99.90;;;;;;5102253;28;20412;-88
2022/04/10 03:02:40;;;;;;;3.25;2.90;;;4.70;99.90;;;;;;5084319;28;20413;-88
2022/04/10 03:05:09;;;;;;;3.08;2.80;;;4.80;99.90;;;;;;5101559;28;20468;-87
2022/04/10 03:07:35;;;;;;;3.45;3.15;;;4.90;99.90;;;;;;5101922;28;20494;-88
2022/04/10 03:10:02;;;;;;;3.53;3.13;;;4.80;99.90;;;;;;5082793;28;20409;-88
2022/04/10 03:12:27;;;;;;;2.97;2.78;;;4.40;99.90;;;;;;5101208;28;20415;-88
2022/04/10 03:14:53;;;;;;;3.60;2.88;;;4.30;99.90;;;;;;5082822;28;20386;-88
2022/04/10 03:17:18;;;;;;;3.30;3.00;;;4.00;99.90;;;;;;5083159;28;20381;-88
2022/04/10 03:19:44;;;;;;;4.20;3.50;;;4.60;99.90;;;;;;5101104;28;20756;-88
2022/04/10 03:22:10;;;;;;;4.10;2.90;;;4.20;99.90;;;;;;5101886;28;20382;-88
2022/04/10 03:24:35;;;;;;;2.63;2.42;;;4.30;99.90;;;;;;5085284;28;20386;-88
2022/04/10 03:27:01;;;;;;;3.43;3.13;;;4.30;99.90;;;;;;5103139;28;20817;-87
2022/04/10 03:29:27;;;;;;;3.17;2.83;;;4.20;99.90;;;;;;5109435;28;21022;-88
2022/04/10 03:31:52;;;;;;;2.97;2.70;;;4.00;99.90;;;;;;5099182;28;20405;-89
2022/04/10 03:34:18;;;;;;;2.53;2.30;;;3.90;99.90;;;;;;5080479;28;20404;-87
2022/04/10 03:36:44;;;;;;;2.87;2.57;;;4.70;99.90;;;;;;5085592;28;20455;-87
2022/04/10 03:39:09;;;;;;;2.90;2.60;;;4.30;99.90;;;;;;5097608;28;20381;-89
2022/04/10 03:41:35;;;;;;;5.20;3.85;;;4.40;99.90;;;;;;5099207;28;20389;-88
2022/04/10 03:44:01;;;;;;;3.95;3.65;;;4.40;99.90;;;;;;5099130;28;20410;-87
2022/04/10 03:46:26;;;;;;;4.00;3.70;;;4.40;99.90;;;;;;5099765;28;20410;-89
2022/04/10 03:48:52;;;;;;;3.47;3.17;;;4.30;99.90;;;;;;5100597;28;20415;-89
2022/04/10 03:51:18;;;;;;;3.45;3.15;;;4.20;99.90;;;;;;5082427;28;20389;-88
2022/04/10 03:53:44;;;;;;;3.22;3.03;;;3.90;99.90;;;;;;5099964;28;20374;-88
2022/04/10 03:56:09;;;;;;;3.10;2.80;;;3.50;99.90;;;;;;5082415;28;20923;-88
2022/04/10 03:58:35;;;;;;;3.20;3.00;;;3.70;99.90;;;;;;5082896;28;20413;-88
2022/04/10 04:01:00;;;;;;;3.63;3.33;;;3.70;99.90;;;;;;5100909;28;20784;-88
2022/04/10 04:03:26;;;;;;;3.35;3.05;;;3.50;99.90;;;;;;5082003;28;20390;-88
2022/04/10 04:05:53;;;;;;;3.33;3.13;;;3.80;99.90;;;;;;5100134;28;20382;-88
2022/04/10 04:08:18;;;;;;;3.55;3.28;;;3.90;99.90;;;;;;5064290;28;20430;-88
2022/04/10 04:10:44;;;;;;;3.67;3.35;;;4.70;99.90;;;;;;5099763;28;20411;-88
2022/04/10 04:13:09;;;;;;;3.97;3.67;;;4.20;99.90;;;;;;5081493;28;20713;-88
2022/04/10 04:15:35;;;;;;;3.80;3.50;;;3.40;99.90;;;;;;5099854;28;20381;-88
2022/04/10 04:18:01;;;;;;;4.60;4.30;;;3.50;99.90;;;;;;5100232;28;20903;-88
2022/04/10 04:20:26;;;;;;;3.38;3.10;;;3.70;99.90;;;;;;5099546;28;20436;-88
2022/04/10 04:22:54;;;;;;;5.70;5.30;;;4.30;99.90;;;;;;5081720;28;20456;-88
2022/04/10 04:25:19;;;;;;;6.35;5.85;;;3.00;99.90;;;;;;5113109;28;20382;-87
2022/04/10 04:27:45;;;;;;;6.03;5.53;;;2.70;99.90;;;;;;5100234;28;20406;-88
2022/04/10 04:30:11;;;;;;;6.32;5.72;;;2.90;99.90;;;;;;5086225;28;20394;-88
2022/04/10 04:32:37;;;;;;;6.60;6.10;;;2.80;99.90;;;;;;5070896;28;20383;-87
2022/04/10 04:35:03;;;;;;;8.02;7.43;;;2.70;99.90;;;;;;5099701;28;20408;-87
2022/04/10 04:37:29;;;;;;;7.38;6.82;;;2.40;99.90;;;;;;5080965;28;20795;-87
2022/04/10 04:39:55;;;;;;;7.07;6.50;;;2.60;99.90;;;;;;5098758;28;20382;-88
2022/04/10 04:42:20;;;;;;;6.72;6.22;;;3.10;99.90;;;;;;5099160;28;20435;-88
2022/04/10 04:44:46;;;;;;;6.78;6.28;;;2.90;99.90;;;;;;5080932;28;20383;-88
2022/04/10 04:47:11;;;;;;;5.50;5.10;;;3.10;99.90;;;;;;5099756;28;20469;-88
2022/04/10 04:49:37;;;;;;;5.95;5.55;;;3.80;99.90;;;;;;5098112;28;20402;-88
2022/04/10 04:52:03;;;;;;;6.18;5.68;;;3.30;99.90;;;;;;5100327;28;20386;-88
2022/04/10 04:54:30;;;;;;;5.90;5.40;;;3.40;99.90;;;;;;5099100;28;20437;-87
2022/04/10 04:56:56;;;;;;;5.68;5.28;;;3.60;99.90;;;;;;5099648;28;20385;-88
2022/04/10 04:59:21;;;;;;;5.30;4.90;;;4.70;99.90;;;;;;5098810;28;20405;-88
2022/04/10 05:01:47;;;;;;;5.40;5.00;;;4.00;99.90;;;;;;5081196;28;20393;-88
2022/04/10 05:04:13;;;;;;;5.20;4.90;;;5.00;99.90;;;;;;5099460;28;20385;-88
2022/04/10 05:06:38;;;;;;;5.17;4.77;;;4.20;99.90;;;;;;5098847;28;20374;-88
2022/04/10 05:09:07;;;;;;;4.67;4.37;;;4.20;99.90;;;;;;5081911;28;20398;-88
2022/04/10 05:11:33;;;;;;;5.10;4.70;;;4.60;99.90;;;;;;5081255;28;20806;-88
2022/04/10 05:13:59;;;;;;;5.43;5.03;;;4.50;99.90;;;;;;5099553;28;20400;-88
2022/04/10 05:16:24;;;;;;;5.20;4.80;;;4.50;99.90;;;;;;5064518;28;20385;-88
2022/04/10 05:18:50;;;;;;;5.10;4.70;;;4.60;99.90;;;;;;5080955;28;20465;-89
2022/04/10 05:21:16;;;;;;;5.00;4.70;;;4.20;99.90;;;;;;5079125;28;20876;-88
2022/04/10 05:23:42;;;;;;;4.90;4.50;;;4.10;99.90;;;;;;5098768;28;20390;-88
2022/04/10 05:26:08;;;;;;;5.55;5.15;;;4.40;99.90;;;;;;5087347;28;20397;-88
2022/04/10 05:28:34;;;;;;;6.07;5.60;;;4.30;99.90;;;;;;5100382;28;20730;-88
2022/04/10 05:31:01;;;;;;;6.13;5.53;;;4.80;99.90;;;;;;5111153;28;20385;-88
2022/04/10 05:33:27;;;;;;;6.10;5.60;;;4.50;99.90;;;;;;5099210;28;20461;-88
2022/04/10 05:35:55;;;;;;;6.57;6.05;;;3.80;99.90;;;;;;5100185;28;20393;-88
2022/04/10 05:38:22;;;;;;;6.80;6.30;;;3.60;99.90;;;;;;5100368;28;20423;-88
2022/04/10 05:40:52;;;;;;;7.85;7.25;;;3.20;99.90;;;;;;5082154;28;20390;-87
2022/04/10 05:43:20;;;;;;;6.68;6.18;;;2.90;99.90;;;;;;5098941;28;20515;-88
2022/04/10 05:45:45;;;;;;;6.27;5.87;;;3.40;99.90;;;;;;5098830;28;20453;-88
2022/04/10 05:48:11;;;;;;;6.22;5.82;;;4.80;99.90;;;;;;5079706;28;20901;-88
2022/04/10 05:50:37;;;;;;;5.97;5.57;;;4.40;99.90;;;;;;5079763;28;20447;-88
2022/04/10 05:53:05;;;;;;;7.40;6.80;;;4.10;99.90;;;;;;5101805;28;20382;-87
2022/04/10 05:55:31;;;;;;;7.30;6.70;;;3.60;99.90;;;;;;5086752;28;20382;-88
2022/04/10 05:57:57;;;;;;;7.55;6.95;;;3.60;99.90;;;;;;5086937;28;20421;-88
2022/04/10 06:00:31;;;;;;;8.00;7.40;;;4.60;99.90;;;;;;5105322;28;20397;-88
2022/04/10 06:03:02;;;;;;;7.68;7.18;;;4.80;99.90;;;;;;5087132;28;21001;-88
2022/04/10 06:05:28;;;;;;;9.25;8.45;;;3.80;99.90;;;;;;5105088;28;20429;-87
2022/04/10 06:07:53;;;;;;;8.90;8.20;;;2.80;99.90;;;;;;5087233;28;20915;-87
2022/04/10 06:10:19;;;;;;;8.45;7.80;;;4.30;99.90;;;;;;5091012;28;20394;-87
2022/04/10 06:12:45;;;;;;;9.77;8.98;;;2.90;99.90;;;;;;5106946;28;20378;-86
2022/04/10 06:15:11;;;;;;;9.95;9.15;;;2.80;99.90;;;;;;5202857;22;20419;-83
2022/04/10 06:17:36;;;;;;;9.40;8.60;;;2.80;99.90;;;;;;5130449;28;20384;-83
2022/04/10 06:20:03;;;;;;;8.60;8.00;;;3.10;99.90;;;;;;5127268;28;20510;-82
2022/04/10 06:22:28;;;;;;;8.70;8.10;;;2.90;99.90;;;;;;5116454;28;20419;-81
2022/04/10 06:24:54;;;;;;;8.27;7.67;;;3.20;99.90;;;;;;5100856;28;20430;-83
2022/04/10 06:27:23;;;;;;;8.10;7.43;;;4.00;99.90;;;;;;5109033;28;20785;-81
2022/04/10 06:29:52;;;;;;;8.15;7.45;;;4.70;99.90;;;;;;5101116;27;20423;-82
2022/04/10 06:32:17;;;;;;;7.82;7.22;;;3.90;99.90;;;;;;5125767;28;20394;-80
2022/04/10 06:34:46;;;;;;;8.23;7.63;;;3.50;99.90;;;;;;5126083;28;20384;-84
2022/04/10 06:37:12;;;;;;;7.72;7.10;;;3.40;99.90;;;;;;5118334;28;20439;-83
2022/04/10 06:39:38;;;;;;;7.60;7.00;;;4.40;99.90;;;;;;5132006;28;20430;-83
2022/04/10 06:42:08;;;;;;;8.20;7.60;;;4.60;99.90;;;;;;5129253;28;20883;-83
2022/04/10 06:44:34;;;;;;;7.63;7.13;;;3.70;99.90;;;;;;5128813;28;20561;-84
2022/04/10 06:47:00;;;;;;;7.55;6.95;;;3.80;99.90;;;;;;5129613;28;20388;-83
2022/04/10 06:49:26;;;;;;;7.80;7.30;;;3.80;99.90;;;;;;5125240;28;20388;-84
2022/04/10 06:51:51;;;;;;;7.82;7.25;;;3.70;99.90;;;;;;5125828;28;20408;-83
2022/04/10 06:54:17;;;;;;;8.65;7.90;;;3.70;99.90;;;;;;5122470;28;20399;-83
2022/04/10 06:56:44;;;;;;;8.00;7.43;;;3.50;99.90;;;;;;5127514;28;20385;-84
2022/04/10 06:59:10;;;;;;;8.65;7.82;;;3.40;99.90;;;;;;5124646;28;20484;-82
2022/04/10 07:01:35;;;;;;;8.63;7.93;;;3.40;99.90;;;;;;5106924;28;20400;-82
2022/04/10 07:04:01;;;;;;;8.00;7.40;;;3.40;99.90;;;;;;5126707;28;20406;-81
2022/04/10 07:06:27;;;;;;;8.32;7.70;;;3.50;99.90;;;;;;5128811;28;20410;-82
2022/04/10 07:08:53;;;;;;;7.75;7.22;;;3.70;99.90;;;;;;5106851;28;20392;-81
2022/04/10 07:11:19;;;;;;;8.00;7.22;;;3.80;99.90;;;;;;5124281;27;20384;-82
2022/04/10 07:13:44;;;;;;;7.32;6.80;;;5.50;99.90;;;;;;5132493;27;20816;-81
2022/04/10 07:16:10;;;;;;;7.18;6.57;;;4.20;99.90;;;;;;5105505;28;20385;-84
2022/04/10 07:18:38;;;;;;;6.70;6.10;;;4.40;99.90;;;;;;5107449;28;20431;-83
2022/04/10 07:21:04;;;;;;;7.38;6.78;;;4.50;99.90;;;;;;5124725;28;20410;-83
2022/04/10 07:23:42;;;;;;;7.10;6.60;;;4.40;99.90;;;;;;5123037;28;20403;-83
2022/04/10 07:26:08;;;;;;;6.68;6.07;;;4.40;99.90;;;;;;5117830;28;20413;-83
2022/04/10 07:28:34;;;;;;;7.15;6.50;;;4.70;99.90;;;;;;5124715;28;20377;-83
2022/04/10 07:31:00;;;;;;;7.00;6.50;;;4.60;99.90;;;;;;5123951;28;20381;-83
2022/04/10 07:33:29;;;;;;;6.85;6.35;;;4.40;99.90;;;;;;5127355;28;20391;-83
2022/04/10 07:35:54;;;;;;;6.97;6.47;;;4.40;99.90;;;;;;5121528;28;20613;-83
2022/04/10 07:38:22;;;;;;;7.37;6.77;;;4.40;99.90;;;;;;5105386;28;20818;-84
2022/04/10 07:40:47;;;;;;;6.15;5.60;;;4.60;99.90;;;;;;5123867;27;20392;-84
2022/04/10 07:43:13;;;;;;;6.13;5.40;;;4.80;99.90;;;;;;5117966;28;20393;-83
2022/04/10 07:48:23;;;;;;;6.53;6.03;;;5.20;99.90;;;;;;5121977;28;20380;-84
2022/04/10 07:50:49;;;;;;;6.60;6.00;;;5.30;99.90;;;;;;5126873;28;20384;-84
2022/04/10 07:53:15;;;;;;;6.03;5.28;;;5.90;99.90;;;;;;5126244;28;20396;-82
2022/04/10 07:55:41;;;;;;;6.63;5.97;;;5.40;99.90;;;;;;5127817;28;20399;-83
2022/04/10 07:58:06;;;;;;;6.63;6.03;;;5.30;99.90;;;;;;5125176;28;20451;-83
2022/04/10 08:00:32;;;;;;;5.30;4.80;;;5.50;99.90;;;;;;5098529;28;20452;-83
2022/04/10 08:03:02;;;;;;;5.82;5.40;;;5.50;99.90;;;;;;5103232;28;20389;-84
2022/04/10 08:05:28;;;;;;;5.90;5.40;;;5.40;99.90;;;;;;5126848;28;20377;-82
2022/04/10 08:07:57;;;;;;;5.70;5.20;;;5.40;99.90;;;;;;5099841;28;20382;-83
2022/04/10 08:10:24;;;;;;;6.40;5.80;;;5.30;99.90;;;;;;5127205;28;20381;-83
2022/04/10 08:12:50;;;;;;;5.68;5.18;;;5.20;99.90;;;;;;5119185;28;20392;-82
2022/04/10 08:15:16;;;;;;;6.20;5.70;;;5.00;99.90;;;;;;5122298;28;20391;-80
2022/04/10 08:17:42;;;;;;;6.10;5.47;;;5.70;99.90;;;;;;5114803;28;20390;-82
2022/04/10 08:20:08;;;;;;;5.87;5.30;;;5.40;99.90;;;;;;5101778;28;20411;-84
2022/04/10 08:22:39;;;;;;;5.50;5.00;;;5.50;99.90;;;;;;5115825;27;20381;-83
2022/04/10 08:25:12;;;;;;;5.15;4.80;;;5.80;99.90;;;;;;5104935;28;20374;-80
2022/04/10 08:27:40;;;;;;;5.20;4.70;;;5.90;99.90;;;;;;5109885;28;20685;-82
2022/04/10 08:30:10;;;;;;;4.63;4.22;;;6.00;99.90;;;;;;5107932;28;20408;-83
2022/04/10 08:32:40;;;;;;;4.43;4.03;;;6.00;99.90;;;;;;5102695;28;20491;-82
2022/04/10 08:35:07;;;;;;;4.72;4.32;;;6.20;99.90;;;;;;5090472;28;20463;-83
2022/04/10 08:37:33;;;;;;;5.80;4.55;;;6.00;99.90;;;;;;5113868;28;20444;-82
2022/04/10 08:39:59;;;;;;;6.45;5.90;;;7.50;99.90;;;;;;5104844;28;20428;-83
2022/04/10 08:42:25;;;;;;;5.03;4.63;;;6.50;99.90;;;;;;5112712;28;20404;-83
2022/04/10 08:44:51;;;;;;;6.90;4.72;;;6.30;99.90;;;;;;5111147;28;20387;-83
2022/04/10 08:47:20;;;;;;;5.80;4.97;;;6.50;99.90;;;;;;5094022;28;20412;-82
2022/04/10 08:49:47;;;;;;;6.10;5.50;;;7.70;99.90;;;;;;5109520;28;20434;-82
2022/04/10 08:52:15;;;;;;;5.28;4.78;;;7.40;99.90;;;;;;5107687;28;20416;-83
2022/04/10 08:54:44;;;;;;;4.38;3.97;;;7.50;99.90;;;;;;5104523;28;20405;-82
2022/04/10 08:57:10;;;;;;;4.70;4.30;;;6.50;99.90;;;;;;5107549;28;20437;-83
2022/04/10 08:59:36;;;;;;;4.50;4.10;;;6.70;99.90;;;;;;5105801;28;20432;-82
2022/04/10 09:02:02;;;;;;;5.00;4.60;;;8.00;99.90;;;;;;5106755;28;20402;-80
2022/04/10 09:04:28;;;;;;;5.20;4.70;;;6.70;99.90;;;;;;5121354;27;20406;-83
2022/04/10 09:07:02;;;;;;;5.03;4.07;;;6.70;99.90;;;;;;5118179;28;20369;-81
2022/04/10 09:09:30;;;;;;;4.45;4.05;;;6.80;99.90;;;;;;5118178;28;20738;-81
2022/04/10 09:11:56;;;;;;;4.30;4.00;;;6.80;99.90;;;;;;5118076;27;20878;-81
2022/04/10 09:14:27;;;;;;;4.55;4.00;;;7.10;99.90;;;;;;5111588;28;20448;-82
2022/04/10 09:17:11;;;;;;;4.93;4.50;;;7.20;99.90;;;;;;5096349;28;20409;-81
2022/04/10 09:19:40;;;;;;;4.72;4.32;;;7.30;99.90;;;;;;5117389;28;20404;-82
2022/04/10 09:22:28;;;;;;;4.37;3.97;;;7.40;99.90;;;;;;5108990;28;20513;-82
2022/04/10 09:25:01;;;;;;;4.20;3.85;;;7.50;99.90;;;;;;5121540;28;20406;-81
2022/04/10 09:27:31;;;;;;;3.78;3.40;;;7.70;99.90;;;;;;5114216;28;20372;-83
2022/04/10 09:29:58;;;;;;;4.70;3.65;;;8.20;99.90;;;;;;5119693;28;20736;-82
2022/04/10 09:32:44;;;;;;;4.13;3.67;;;7.40;99.90;;;;;;5108747;28;20402;-82
2022/04/10 09:35:11;;;;;;;3.50;3.20;;;7.30;99.90;;;;;;5095259;28;20384;-83
2022/04/10 09:37:53;;;;;;;3.77;3.20;;;7.50;99.90;;;;;;5112744;28;20387;-81
2022/04/10 09:40:33;;;;;;;3.95;3.20;;;7.40;99.90;;;;;;5112849;28;20404;-81
2022/04/10 09:43:03;;;;;;;3.30;3.00;;;7.60;99.90;;;;;;5109265;28;20413;-83
2022/04/10 09:45:40;;;;;;;3.80;3.50;;;8.00;99.90;;;;;;5119167;28;20409;-81
2022/04/10 09:48:24;;;;;;;3.80;3.40;;;8.10;99.90;;;;;;5120925;28;20376;-81
2022/04/10 09:50:53;;;;;;;3.33;3.03;;;8.30;99.90;;;;;;5119874;28;20396;-82
2022/04/10 09:53:20;;;;;;;3.23;2.93;;;8.40;99.90;;;;;;5118178;28;20381;-82
2022/04/10 09:55:52;;;;;;;3.60;3.10;;;8.80;99.90;;;;;;5113221;28;20448;-82
2022/04/10 09:58:20;;;;;;;2.97;2.70;;;8.90;99.90;;;;;;5104494;28;20388;-82
2022/04/10 10:00:46;;;;;;;3.20;2.90;;;8.80;99.90;;;;;;5109689;28;20408;-83
2022/04/10 10:03:14;;;;;;;3.73;3.37;;;8.80;99.90;;;;;;5108397;28;20384;-82
2022/04/10 10:05:40;;;;;;;2.92;2.72;;;8.80;99.90;;;;;;5106379;28;20374;-82
2022/04/10 10:08:06;;;;;;;3.30;3.00;;;8.60;99.90;;;;;;5082580;28;20386;-82
2022/04/10 10:10:34;;;;;;;3.22;2.92;;;8.60;99.90;;;;;;5118777;28;20415;-81
2022/04/10 10:13:07;;;;;;;3.13;2.83;;;8.60;99.90;;;;;;5121993;28;20392;-82
2022/04/10 10:15:35;;;;;;;2.78;2.45;;;8.70;99.90;;;;;;5109785;28;20401;-83
2022/04/10 10:18:06;;;;;;;3.22;2.92;;;8.90;99.90;;;;;;5100159;28;20885;-81
2022/04/10 10:20:33;;;;;;;3.40;3.10;;;8.70;99.90;;;;;;5088263;28;20411;-82
2022/04/10 10:23:04;;;;;;;3.20;2.90;;;8.50;99.90;;;;;;5119442;28;20389;-83
2022/04/10 10:25:33;;;;;;;3.10;2.67;;;8.70;99.90;;;;;;5115371;28;20376;-82
2022/04/10 10:28:08;;;;;;;3.88;3.47;;;8.80;99.90;;;;;;5082429;28;20414;-83
2022/04/10 10:31:12;;;;;;;3.95;2.90;;;8.90;99.90;;;;;;5087928;28;20946;-83
2022/04/10 10:33:40;;;;;;;3.38;2.67;;;9.00;99.90;;;;;;5118247;28;20898;-83
2022/04/10 10:36:09;;;;;;;6.05;4.25;;;9.10;99.90;;;;;;5111935;28;20401;-82
2022/04/10 10:38:35;;;;;;;3.78;3.47;;;8.80;99.90;;;;;;5109050;28;20390;-82
2022/04/10 10:41:16;;;;;;;3.38;3.08;;;8.80;99.90;;;;;;5103284;28;20419;-83
2022/04/10 10:43:42;;;;;;;9.32;5.53;;;8.60;99.90;;;;;;5125768;28;20369;-83
2022/04/10 10:46:21;;;;;;;2.95;2.65;;;8.50;99.90;;;;;;5121242;28;20384;-83
2022/04/10 10:48:50;;;;;;;2.83;2.53;;;8.60;99.90;;;;;;5118066;28;20383;-83
2022/04/10 10:51:16;;;;;;;3.28;2.97;;;8.80;99.90;;;;;;5092830;28;20393;-83
2022/04/10 10:53:58;;;;;;;3.17;2.97;;;8.90;99.90;;;;;;5115894;28;20395;-84
2022/04/10 10:57:16;;;;;;;;;;;;;;;;;;;;;
2022/04/10 11:00:40;;;;;;;3.00;2.70;;;9.50;99.90;;;;;;5086042;28;20475;-85
2022/04/10 11:03:14;;;;;;;4.22;2.45;;;8.90;99.90;;;;;;5099700;28;20461;-85
2022/04/10 11:06:11;;;;;;;3.08;2.67;;;7.90;99.90;;;;;;5122706;28;20894;-85
2022/04/10 11:12:01;;;;;;;3.22;2.58;;;8.80;99.90;;;;;;5121062;28;20449;-86
2022/04/10 11:14:41;;;;;;;2.92;2.58;;;8.60;99.90;;;;;;5103756;28;20396;-85
2022/04/10 11:17:15;;;;;;;2.80;2.47;;;8.60;99.90;;;;;;5120223;28;20412;-85
2022/04/10 11:19:45;;;;;;;3.30;2.50;;;8.60;99.90;;;;;;5119657;28;20440;-85
2022/04/10 11:22:17;;;;;;;3.22;2.60;;;8.90;99.90;;;;;;5118495;28;20468;-85
2022/04/10 11:24:44;;;;;;;3.05;2.40;;;9.00;99.90;;;;;;5101130;28;20758;-86
2022/04/10 11:27:42;;;;;;;3.00;2.40;;;9.20;99.90;;;;;;5099770;28;20422;-85
2022/04/10 11:30:41;;;;;;;2.97;2.35;;;9.20;99.90;;;;;;5120787;28;20437;-84
2022/04/10 11:33:57;;;;;;;3.85;2.40;;;8.50;99.90;;;;;;5087288;28;20391;-85
2022/04/10 11:36:43;;;;;;;2.57;2.37;;;9.80;99.90;;;;;;5111871;28;20455;-86
2022/04/10 11:39:56;;;;;;;;;;;;;;;;;;;;;
2022/04/10 11:42:54;;;;;;;2.40;2.20;;;8.60;99.90;;;;;;5080570;28;20484;-85
2022/04/10 11:45:25;;;;;;;3.03;2.58;;;9.20;99.90;;;;;;5062647;28;20391;-85
2022/04/10 11:47:54;;;;;;;2.53;1.90;;;8.90;99.90;;;;;;5117860;28;20388;-85
2022/04/10 11:50:21;;;;;;;2.60;2.40;;;9.30;99.90;;;;;;5119011;28;20436;-85
2022/04/10 11:53:04;;;;;;;2.40;1.98;;;9.00;99.90;;;;;;5117978;28;20407;-85
2022/04/10 11:55:43;;;;;;;3.70;2.90;;;8.80;99.90;;;;;;5118789;28;20395;-84
2022/04/10 11:58:34;;;;;;;2.30;2.10;;;9.20;99.90;;;;;;5118871;28;20388;-85
2022/04/10 12:01:01;;;;;;;2.33;2.13;;;9.20;99.90;;;;;;5112889;28;20416;-85
2022/04/10 12:03:29;;;;;;;2.47;2.27;;;10.50;99.90;;;;;;5117826;28;20847;-85
2022/04/10 12:05:57;;;;;;;2.75;2.22;;;8.40;99.90;;;;;;5117796;28;20420;-84
2022/04/10 12:08:26;;;;;;;3.20;2.10;;;9.10;99.90;;;;;;5117609;28;20459;-85
2022/04/10 12:10:57;;;;;;;2.22;2.08;;;8.10;99.90;;;;;;5119073;28;20389;-85
2022/04/10 12:13:30;;;;;;;2.97;1.90;;;8.50;99.90;;;;;;5117954;28;20388;-84
2022/04/10 12:16:13;;;;;;;2.45;1.95;;;8.80;99.90;;;;;;5116800;28;20479;-84
2022/04/10 12:19:35;;;;;;;;;;;;;;;;;;;;;
2022/04/10 12:22:13;;;;;;;2.30;2.00;;;8.80;99.90;;;;;;5036903;28;20482;-85
2022/04/10 12:24:45;;;;;;;2.05;1.83;;;9.80;99.90;;;;;;5108634;28;20380;-85
2022/04/10 12:27:44;;;;;;;2.42;2.22;;;9.50;99.90;;;;;;5120996;28;20384;-85
2022/04/10 12:30:14;;;;;;;2.83;2.33;;;8.60;99.90;;;;;;5076912;28;20392;-85
2022/04/10 12:33:05;;;;;;;3.17;2.00;;;9.60;99.90;;;;;;5120369;28;20402;-85
2022/04/10 12:35:43;;;;;;;2.88;2.20;;;9.90;99.90;;;;;;5106701;28;20387;-85
2022/04/10 12:39:00;;;;;;;2.30;2.10;;;9.80;99.90;;;;;;5100885;27;20384;-85
2022/04/10 12:42:09;;;;;;;3.20;2.40;;;9.80;99.90;;;;;;4969366;28;20434;-85
2022/04/10 12:44:47;;;;;;;2.72;2.03;;;9.90;99.90;;;;;;5039202;28;20468;-86
2022/04/10 12:47:48;;;;;;;2.13;1.92;;;10.20;99.90;;;;;;5117913;28;20429;-85
2022/04/10 12:50:34;;;;;;;2.40;1.80;;;10.10;99.90;;;;;;5099777;28;20447;-85
2022/04/10 12:53:19;;;;;;;2.92;2.20;;;10.20;99.90;;;;;;5097530;28;20385;-85
2022/04/10 12:55:59;;;;;;;2.20;2.00;;;10.20;99.90;;;;;;5130646;27;20371;-85
2022/04/10 12:58:48;;;;;;;2.60;2.10;;;10.40;99.90;;;;;;5113961;27;20375;-85
2022/04/10 13:01:29;;;;;;;2.20;1.83;;;10.40;99.90;;;;;;5109440;28;20388;-84
2022/04/10 13:04:08;;;;;;;3.00;2.20;;;10.50;99.90;;;;;;5117773;28;20385;-84
2022/04/10 13:06:50;;;;;;;2.28;2.08;;;9.60;99.90;;;;;;5116495;27;20444;-84
2022/04/10 13:09:17;;;;;;;2.30;2.10;;;10.80;99.90;;;;;;5124602;28;20436;-85
2022/04/10 13:11:46;;;;;;;2.20;2.00;;;10.80;99.90;;;;;;5120295;27;20405;-84
2022/04/10 13:14:13;;;;;;;2.33;2.00;;;12.30;99.90;;;;;;5109848;28;20859;-84
2022/04/10 13:20:33;;;;;;;2.90;1.70;;;11.20;99.90;;;;;;5120197;28;20873;-85
2022/04/10 13:27:39;;;;;;;;;;;;;;;;;;;;;
2022/04/10 13:30:53;;;;;;;;;;;;;;;;;;;;;
2022/04/10 13:34:17;;;;;;;2.10;1.75;;;11.50;99.90;;;;;;5054326;28;20468;-84
2022/04/10 13:37:31;;;;;;;2.35;1.50;;;10.20;99.90;;;;;;5074849;28;20384;-84
2022/04/10 13:43:41;;;;;;;2.65;1.80;;;11.60;99.90;;;;;;5038362;28;20385;-84